Time;durP1;ratioP1;P1;durP2;ratioP2;P2;SDS_P1;SDS_P2;PMS_P1;PMS_P2;Temp;Humidity;BMP_temperature;BMP_pressure;BME280_temperature;BME280_humidity;BME280_pressure;Samples;Min_cycle;Max_cycle;Signal;HPM_P1;HPM_P2
2022/11/22 00:02:09;;;;;;;9.50;7.05;;;9.40;99.90;;;;;;5075339;28;20020;-80
2022/11/22 00:04:35;;;;;;;11.98;6.75;;;9.40;99.90;;;;;;5074806;28;20025;-80
2022/11/22 00:07:01;;;;;;;9.68;7.07;;;9.40;99.90;;;;;;5074779;28;20032;-80
2022/11/22 00:09:26;;;;;;;13.30;7.10;;;9.40;99.90;;;;;;5074994;28;20028;-80
2022/11/22 00:11:52;;;;;;;11.23;7.78;;;9.30;99.90;;;;;;5074791;28;20021;-80
2022/11/22 00:14:18;;;;;;;12.93;7.82;;;9.30;99.90;;;;;;5074674;28;20068;-80
2022/11/22 00:16:43;;;;;;;10.95;7.18;;;9.50;99.90;;;;;;5072937;28;20538;-80
2022/11/22 00:19:09;;;;;;;12.93;7.60;;;9.30;99.90;;;;;;5055540;28;20029;-80
2022/11/22 00:21:34;;;;;;;11.60;8.18;;;9.30;99.90;;;;;;5054595;28;20036;-80
2022/11/22 00:24:00;;;;;;;11.57;7.93;;;9.20;99.90;;;;;;5054292;28;20028;-80
2022/11/22 00:26:26;;;;;;;10.63;7.82;;;9.60;99.90;;;;;;5054361;28;20021;-80
2022/11/22 00:28:51;;;;;;;15.77;9.10;;;9.20;99.90;;;;;;5054338;28;20059;-80
2022/11/22 00:31:17;;;;;;;18.05;8.30;;;9.40;99.90;;;;;;5054376;28;20021;-80
2022/11/22 00:33:43;;;;;;;10.80;7.80;;;9.10;99.90;;;;;;5069216;28;20049;-80
2022/11/22 00:36:08;;;;;;;12.15;7.57;;;9.10;99.90;;;;;;5074362;28;20044;-80
2022/11/22 00:38:34;;;;;;;14.55;8.73;;;9.10;99.90;;;;;;5074348;28;20028;-80
2022/11/22 00:40:59;;;;;;;13.65;7.47;;;9.10;99.90;;;;;;5074026;28;20032;-80
2022/11/22 00:43:25;;;;;;;11.02;7.88;;;9.00;99.90;;;;;;5073721;28;20035;-80
2022/11/22 00:45:51;;;;;;;12.65;7.68;;;9.00;99.90;;;;;;5073730;28;20095;-80
2022/11/22 00:48:16;;;;;;;10.82;7.30;;;9.00;99.90;;;;;;5074078;28;20397;-80
2022/11/22 00:50:42;;;;;;;12.18;8.35;;;9.00;99.90;;;;;;5073166;28;20036;-80
2022/11/22 00:53:08;;;;;;;12.30;7.82;;;9.00;99.90;;;;;;5073973;28;20063;-80
2022/11/22 00:55:33;;;;;;;13.18;7.15;;;9.40;99.90;;;;;;5073959;28;20488;-80
2022/11/22 00:57:59;;;;;;;17.73;7.72;;;9.10;99.90;;;;;;5073800;28;20031;-80
2022/11/22 01:00:24;;;;;;;12.57;6.65;;;9.50;99.90;;;;;;5073871;28;20366;-80
2022/11/22 01:02:50;;;;;;;14.32;6.88;;;9.40;99.90;;;;;;5073717;28;20439;-80
2022/11/22 01:05:16;;;;;;;14.52;6.68;;;9.10;99.90;;;;;;5073662;28;20195;-80
2022/11/22 01:07:43;;;;;;;10.15;6.55;;;9.00;99.90;;;;;;5073452;28;20466;-80
2022/11/22 01:10:09;;;;;;;10.77;6.50;;;9.00;99.90;;;;;;5073995;28;20021;-80
2022/11/22 01:12:35;;;;;;;11.57;6.90;;;8.70;99.90;;;;;;5074280;28;20086;-80
2022/11/22 01:15:01;;;;;;;12.93;7.13;;;8.50;99.90;;;;;;5074704;28;20484;-80
2022/11/22 01:17:27;;;;;;;11.27;6.70;;;8.50;99.90;;;;;;5068114;28;20029;-80
2022/11/22 01:19:52;;;;;;;13.35;7.50;;;8.40;99.90;;;;;;5053541;28;20499;-80
2022/11/22 01:22:18;;;;;;;12.05;7.47;;;8.70;99.90;;;;;;5053341;28;20013;-80
2022/11/22 01:24:43;;;;;;;17.30;8.00;;;8.40;99.90;;;;;;5053373;28;20029;-80
2022/11/22 01:27:09;;;;;;;11.70;7.38;;;8.40;99.90;;;;;;5053155;28;20025;-80
2022/11/22 01:29:34;;;;;;;14.73;8.15;;;8.40;99.90;;;;;;5053320;28;20056;-80
2022/11/22 01:32:00;;;;;;;13.00;8.25;;;8.40;99.90;;;;;;5054126;28;20039;-80
2022/11/22 01:34:26;;;;;;;12.43;8.43;;;8.40;99.90;;;;;;5072725;28;20040;-80
2022/11/22 01:36:52;;;;;;;14.02;8.00;;;8.40;99.90;;;;;;5073505;28;20024;-80
2022/11/22 01:39:17;;;;;;;14.93;8.30;;;8.40;99.90;;;;;;5073042;28;20058;-80
2022/11/22 01:41:43;;;;;;;16.60;8.57;;;8.40;99.90;;;;;;5072973;28;20021;-80
2022/11/22 01:44:29;;;;;;;15.23;7.47;;;8.70;99.90;;;;;;5072712;28;20487;-80
2022/11/22 01:46:59;;;;;;;14.93;8.95;;;8.40;99.90;;;;;;5072856;28;20446;-80
2022/11/22 01:50:00;;;;;;;20.27;8.70;;;8.70;99.90;;;;;;5072921;28;20043;-80
2022/11/22 01:52:31;;;;;;;12.65;8.20;;;8.50;99.90;;;;;;5030667;28;20060;-80
2022/11/22 01:55:07;;;;;;;14.80;8.18;;;8.50;99.90;;;;;;5029629;28;20610;-80
2022/11/22 01:57:37;;;;;;;12.30;7.68;;;8.50;99.90;;;;;;5030722;28;20401;-80
2022/11/22 02:00:07;;;;;;;12.75;7.00;;;8.50;99.90;;;;;;5030411;28;20037;-80
2022/11/22 02:02:34;;;;;;;12.68;7.32;;;8.50;99.90;;;;;;5030999;28;20054;-80
2022/11/22 02:05:04;;;;;;;15.20;7.72;;;8.50;99.90;;;;;;5030221;28;20045;-80
2022/11/22 02:08:12;;;;;;;13.50;7.63;;;8.40;99.90;;;;;;5030695;28;20141;-80
2022/11/22 02:10:43;;;;;;;14.98;8.10;;;8.30;99.90;;;;;;4952982;28;20027;-80
2022/11/22 02:13:10;;;;;;;16.00;8.23;;;8.70;99.90;;;;;;4951885;29;20074;-80
2022/11/22 02:15:36;;;;;;;18.02;8.57;;;8.40;99.90;;;;;;4952290;29;20069;-80
2022/11/22 02:18:02;;;;;;;18.95;9.35;;;8.60;99.90;;;;;;4942278;29;20071;-80
2022/11/22 02:20:27;;;;;;;16.10;8.32;;;8.40;99.90;;;;;;4932862;29;20163;-79
2022/11/22 02:23:02;;;;;;;19.88;8.60;;;8.40;99.90;;;;;;4934643;29;20492;-85
2022/11/22 02:25:39;;;;;;;15.23;8.25;;;8.30;99.90;;;;;;4937498;28;20123;-86
2022/11/22 02:28:07;;;;;;;14.10;9.00;;;8.40;99.90;;;;;;4971029;28;20375;-85
2022/11/22 02:30:34;;;;;;;11.05;7.80;;;8.30;99.90;;;;;;4971362;28;20026;-85
2022/11/22 02:33:00;;;;;;;13.23;7.95;;;8.40;99.90;;;;;;4980285;28;20088;-86
2022/11/22 02:35:28;;;;;;;17.02;7.95;;;8.20;99.90;;;;;;4990744;28;20066;-85
2022/11/22 02:38:00;;;;;;;15.05;7.88;;;8.10;99.90;;;;;;4991048;28;20042;-85
2022/11/22 02:40:30;;;;;;;13.65;7.93;;;8.20;99.90;;;;;;4990706;28;20081;-85
2022/11/22 02:43:01;;;;;;;14.63;7.25;;;8.10;99.90;;;;;;4990095;28;20050;-85
2022/11/22 02:45:27;;;;;;;10.93;6.43;;;8.20;99.90;;;;;;5064313;28;20044;-86
2022/11/22 02:47:53;;;;;;;15.38;6.60;;;8.10;99.90;;;;;;5072096;28;20025;-85
2022/11/22 02:50:18;;;;;;;11.65;7.38;;;8.10;99.90;;;;;;5072000;28;20465;-86
2022/11/22 02:52:44;;;;;;;12.80;7.00;;;8.10;99.90;;;;;;5072379;28;20085;-85
2022/11/22 02:55:10;;;;;;;15.20;7.15;;;8.00;99.90;;;;;;5071923;28;20155;-85
2022/11/22 02:57:35;;;;;;;11.60;6.90;;;8.10;99.90;;;;;;5071698;28;20081;-85
2022/11/22 03:00:01;;;;;;;14.93;7.05;;;8.10;99.90;;;;;;5071960;28;20024;-85
2022/11/22 03:02:27;;;;;;;15.80;7.30;;;8.10;99.90;;;;;;5087840;28;20044;-86
2022/11/22 03:04:52;;;;;;;14.05;7.05;;;8.10;99.90;;;;;;5072090;28;20473;-86
2022/11/22 03:07:18;;;;;;;11.75;6.78;;;8.20;99.90;;;;;;5074407;28;20032;-86
2022/11/22 03:09:43;;;;;;;17.30;6.85;;;8.10;99.90;;;;;;5076073;28;20025;-85
2022/11/22 03:12:09;;;;;;;18.88;7.65;;;8.00;99.90;;;;;;5075930;28;20029;-86
2022/11/22 03:14:35;;;;;;;23.23;7.40;;;8.00;99.90;;;;;;5075501;28;20048;-85
2022/11/22 03:17:00;;;;;;;15.80;7.53;;;7.90;99.90;;;;;;5074250;28;20041;-85
2022/11/22 03:19:26;;;;;;;12.55;8.02;;;7.90;99.90;;;;;;5055574;28;20025;-86
2022/11/22 03:21:51;;;;;;;14.43;7.70;;;7.90;99.90;;;;;;5055702;28;20025;-86
2022/11/22 03:24:19;;;;;;;16.88;8.23;;;7.80;99.90;;;;;;5056441;28;20048;-85
2022/11/22 03:26:48;;;;;;;15.07;8.52;;;7.80;99.90;;;;;;5055458;28;20051;-85
2022/11/22 03:29:15;;;;;;;15.50;8.15;;;7.80;99.90;;;;;;5055624;28;20032;-85
2022/11/22 03:31:41;;;;;;;15.55;8.52;;;7.70;99.90;;;;;;5055584;28;20365;-86
2022/11/22 03:34:07;;;;;;;18.00;8.40;;;7.80;99.90;;;;;;5074072;28;20107;-85
2022/11/22 03:36:33;;;;;;;12.73;8.02;;;7.80;99.90;;;;;;5075720;28;20029;-85
2022/11/22 03:38:58;;;;;;;12.82;7.25;;;7.80;99.90;;;;;;5075409;28;20028;-86
2022/11/22 03:41:24;;;;;;;12.73;7.30;;;7.80;99.90;;;;;;5074944;28;20025;-85
2022/11/22 03:43:50;;;;;;;12.48;7.40;;;7.80;99.90;;;;;;5075338;28;20623;-85
2022/11/22 03:46:18;;;;;;;15.98;7.80;;;7.90;99.90;;;;;;5075491;28;20491;-85
2022/11/22 03:48:44;;;;;;;18.65;7.60;;;7.90;99.90;;;;;;5075243;28;20107;-85
2022/11/22 03:51:10;;;;;;;14.18;7.88;;;8.00;99.90;;;;;;5075214;28;20021;-84
2022/11/22 03:53:36;;;;;;;15.48;7.40;;;8.00;99.90;;;;;;5074970;28;20033;-85
2022/11/22 03:56:02;;;;;;;18.00;7.68;;;7.90;99.90;;;;;;5075779;28;20103;-85
2022/11/22 03:58:28;;;;;;;15.75;7.82;;;7.90;99.90;;;;;;5075015;28;20107;-85
2022/11/22 04:00:54;;;;;;;12.93;7.38;;;8.00;99.90;;;;;;5073739;28;20384;-85
2022/11/22 04:03:20;;;;;;;18.15;7.35;;;8.00;99.90;;;;;;5073653;28;20021;-85
2022/11/22 04:05:45;;;;;;;18.75;8.25;;;7.70;99.90;;;;;;5074673;28;20419;-85
2022/11/22 04:08:11;;;;;;;15.32;8.02;;;7.80;99.90;;;;;;5073255;28;20029;-85
2022/11/22 04:10:37;;;;;;;12.82;7.50;;;7.70;99.90;;;;;;5073962;28;20040;-85
2022/11/22 04:13:03;;;;;;;11.57;7.15;;;7.50;99.90;;;;;;5074850;28;20025;-86
2022/11/22 04:15:28;;;;;;;18.25;7.53;;;7.60;99.90;;;;;;5075551;28;20477;-85
2022/11/22 04:17:54;;;;;;;15.98;7.85;;;7.60;99.90;;;;;;5063257;28;20029;-85
2022/11/22 04:23:08;;;;;;;18.48;8.18;;;7.70;99.90;;;;;;5054503;28;20035;-85
2022/11/22 04:25:35;;;;;;;18.42;7.30;;;7.50;99.90;;;;;;5054945;28;20492;-85
2022/11/22 04:28:02;;;;;;;14.52;7.88;;;7.60;99.90;;;;;;5053532;28;20025;-85
2022/11/22 04:33:13;;;;;;;18.33;8.00;;;7.50;99.90;;;;;;5065401;28;20462;-85
2022/11/22 04:35:40;;;;;;;17.90;8.10;;;7.50;99.90;;;;;;5074212;28;20032;-85
2022/11/22 04:38:06;;;;;;;16.65;7.60;;;7.40;99.90;;;;;;5074010;28;20025;-85
2022/11/22 04:40:32;;;;;;;16.55;7.70;;;7.40;99.90;;;;;;5074563;28;20078;-85
2022/11/22 04:45:42;;;;;;;15.80;7.28;;;7.40;99.90;;;;;;5074282;28;20082;-85
2022/11/22 04:48:09;;;;;;;17.05;7.90;;;7.30;99.90;;;;;;5074341;28;20032;-85
2022/11/22 04:53:19;;;;;;;17.60;8.35;;;7.30;99.90;;;;;;5074549;28;20107;-85
2022/11/22 04:55:46;;;;;;;16.02;7.75;;;7.40;99.90;;;;;;5073826;28;20468;-84
2022/11/22 04:58:12;;;;;;;17.08;8.48;;;7.50;99.90;;;;;;5074062;28;20021;-85
2022/11/22 05:00:38;;;;;;;22.25;9.35;;;7.50;99.90;;;;;;5072547;28;20056;-85
2022/11/22 05:03:04;;;;;;;19.70;7.60;;;7.50;99.90;;;;;;5074095;28;20050;-85
2022/11/22 05:05:33;;;;;;;14.68;7.90;;;7.50;99.90;;;;;;5073925;28;20036;-85
2022/11/22 05:07:59;;;;;;;19.38;7.75;;;7.60;99.90;;;;;;5073183;28;20033;-85
2022/11/22 05:10:24;;;;;;;16.33;7.35;;;7.60;99.90;;;;;;5074070;28;20027;-86
2022/11/22 05:12:50;;;;;;;16.63;7.00;;;7.80;99.90;;;;;;5073719;28;20025;-85
2022/11/22 05:15:16;;;;;;;17.92;7.07;;;7.60;99.90;;;;;;5074154;28;20109;-84
2022/11/22 05:17:42;;;;;;;13.80;6.97;;;7.70;99.90;;;;;;5064762;28;20126;-84
2022/11/22 05:20:08;;;;;;;16.88;6.90;;;7.60;99.90;;;;;;5054019;28;20029;-85
2022/11/22 05:25:18;;;;;;;18.42;6.55;;;7.80;99.90;;;;;;5053740;28;20421;-85
2022/11/22 05:27:44;;;;;;;16.30;6.15;;;7.60;99.90;;;;;;5052765;28;20025;-85
2022/11/22 05:30:10;;;;;;;16.20;5.65;;;7.70;99.90;;;;;;5052317;28;20061;-85
2022/11/22 05:32:35;;;;;;;13.82;6.10;;;7.60;99.90;;;;;;5059252;28;20093;-84
2022/11/22 05:35:01;;;;;;;19.65;7.45;;;7.60;99.90;;;;;;5073139;28;20044;-85
2022/11/22 05:37:27;;;;;;;16.70;7.65;;;7.90;99.90;;;;;;5073840;28;20162;-85
2022/11/22 05:39:52;;;;;;;19.17;7.25;;;7.60;99.90;;;;;;5073426;28;20039;-85
2022/11/22 05:42:18;;;;;;;22.63;7.85;;;7.70;99.90;;;;;;5073020;28;20373;-85
2022/11/22 05:44:44;;;;;;;16.38;6.72;;;7.60;99.90;;;;;;5072972;28;20027;-85
2022/11/22 05:47:10;;;;;;;16.45;7.70;;;7.60;99.90;;;;;;5071501;28;20028;-85
2022/11/22 05:49:36;;;;;;;15.38;6.70;;;7.60;99.90;;;;;;5072928;28;20488;-85
2022/11/22 05:52:02;;;;;;;10.25;4.95;;;7.50;99.90;;;;;;5072757;28;20468;-85
2022/11/22 05:54:29;;;;;;;11.75;5.32;;;7.80;99.90;;;;;;5073098;28;20040;-86
2022/11/22 05:56:54;;;;;;;12.50;4.38;;;7.40;99.90;;;;;;5072680;28;20024;-86
2022/11/22 05:59:20;;;;;;;14.77;5.05;;;7.60;99.90;;;;;;5072831;28;20036;-86
2022/11/22 06:01:45;;;;;;;14.23;4.47;;;7.50;99.90;;;;;;5072805;28;20055;-85
2022/11/22 06:04:11;;;;;;;11.65;4.20;;;7.50;99.90;;;;;;5072624;28;20032;-85
2022/11/22 06:06:37;;;;;;;13.35;3.80;;;7.50;99.90;;;;;;5072483;28;20028;-86
2022/11/22 06:09:03;;;;;;;15.45;4.15;;;7.40;99.90;;;;;;5071115;28;20094;-86
2022/11/22 06:11:29;;;;;;;11.13;4.00;;;7.70;99.90;;;;;;5072528;28;20035;-86
2022/11/22 06:13:57;;;;;;;11.20;5.13;;;7.50;99.90;;;;;;5071108;28;20032;-86
2022/11/22 06:16:24;;;;;;;13.40;4.93;;;7.60;99.90;;;;;;5072934;28;20191;-86
2022/11/22 06:18:51;;;;;;;11.10;4.93;;;7.50;99.90;;;;;;5055238;28;20489;-85
2022/11/22 06:21:22;;;;;;;12.10;4.88;;;7.40;99.90;;;;;;5052357;28;20027;-86
2022/11/22 06:23:47;;;;;;;12.77;5.30;;;7.40;99.90;;;;;;5052218;28;20021;-86
2022/11/22 06:26:15;;;;;;;16.25;5.80;;;7.70;99.90;;;;;;5052192;28;20036;-86
2022/11/22 06:28:41;;;;;;;15.55;6.13;;;7.40;99.90;;;;;;5051159;28;20021;-85
2022/11/22 06:31:16;;;;;;;14.57;6.85;;;7.50;99.90;;;;;;5051791;28;20582;-86
2022/11/22 06:33:42;;;;;;;17.60;6.90;;;7.50;99.90;;;;;;5066744;28;20055;-86
2022/11/22 06:36:16;;;;;;;16.42;6.95;;;7.50;99.90;;;;;;5072145;28;20033;-86
2022/11/22 06:38:42;;;;;;;14.55;6.82;;;7.50;99.90;;;;;;5072395;28;20028;-86
2022/11/22 06:41:13;;;;;;;16.63;7.30;;;7.40;99.90;;;;;;5070238;28;20496;-86
2022/11/22 06:43:40;;;;;;;16.58;7.32;;;7.40;99.90;;;;;;5072028;28;20013;-86
2022/11/22 06:46:06;;;;;;;16.60;7.55;;;7.40;99.90;;;;;;5072054;28;20365;-85
2022/11/22 06:48:35;;;;;;;14.68;9.65;;;7.40;99.90;;;;;;5072058;28;20169;-86
2022/11/22 06:51:02;;;;;;;18.70;10.30;;;7.40;99.90;;;;;;5072067;28;20111;-86
2022/11/22 06:53:29;;;;;;;16.75;8.95;;;7.40;99.90;;;;;;5071962;28;20100;-86
2022/11/22 06:56:09;;;;;;;16.10;8.40;;;7.40;99.90;;;;;;5071744;28;20020;-85
2022/11/22 06:58:35;;;;;;;18.00;7.93;;;7.40;99.90;;;;;;5071977;28;20093;-86
2022/11/22 07:01:03;;;;;;;15.93;7.45;;;7.40;99.90;;;;;;5072116;28;20115;-86
2022/11/22 07:03:29;;;;;;;15.43;6.82;;;7.40;99.90;;;;;;5071841;28;20024;-86
2022/11/22 07:05:54;;;;;;;25.55;7.25;;;7.40;99.90;;;;;;5072029;28;20025;-86
2022/11/22 07:08:21;;;;;;;18.90;6.03;;;7.40;99.90;;;;;;5071824;28;20037;-86
2022/11/22 07:10:46;;;;;;;13.25;5.28;;;7.70;99.90;;;;;;5072106;28;20092;-86
2022/11/22 07:13:12;;;;;;;13.85;4.93;;;7.60;99.90;;;;;;5070373;28;20111;-86
2022/11/22 07:15:38;;;;;;;13.30;4.97;;;7.60;99.90;;;;;;5071932;28;20132;-86
2022/11/22 07:18:03;;;;;;;13.02;4.53;;;7.70;99.90;;;;;;5060936;28;20397;-85
2022/11/22 07:20:29;;;;;;;13.75;4.72;;;7.60;99.90;;;;;;5051634;28;20033;-85
2022/11/22 07:22:55;;;;;;;11.13;4.70;;;7.30;99.90;;;;;;5051702;28;20021;-86
2022/11/22 07:25:20;;;;;;;14.30;4.72;;;7.40;99.90;;;;;;5051589;28;20492;-86
2022/11/22 07:27:46;;;;;;;13.25;4.90;;;7.60;99.90;;;;;;5052013;28;20028;-86
2022/11/22 07:30:12;;;;;;;15.18;5.28;;;7.60;99.90;;;;;;5058144;28;20365;-86
2022/11/22 07:32:37;;;;;;;13.90;5.47;;;7.60;99.90;;;;;;5070829;28;20052;-85
2022/11/22 07:35:03;;;;;;;14.68;6.63;;;7.60;99.90;;;;;;5070572;28;20040;-86
2022/11/22 07:37:32;;;;;;;14.20;6.15;;;7.20;99.90;;;;;;5071509;28;20028;-86
2022/11/22 07:39:57;;;;;;;14.85;5.68;;;7.40;99.90;;;;;;5071475;28;20052;-86
2022/11/22 07:42:23;;;;;;;12.85;6.00;;;7.50;99.90;;;;;;5071769;28;20465;-85
2022/11/22 07:44:49;;;;;;;13.55;6.07;;;7.80;99.90;;;;;;5071526;28;20032;-86
2022/11/22 07:47:14;;;;;;;16.08;6.65;;;7.60;99.90;;;;;;5069986;28;20028;-86
2022/11/22 07:49:40;;;;;;;13.73;5.38;;;7.60;99.90;;;;;;5070496;28;20033;-85
2022/11/22 07:52:06;;;;;;;15.52;5.55;;;7.70;99.90;;;;;;5071365;28;20377;-86
2022/11/22 07:54:31;;;;;;;14.05;5.95;;;7.70;99.90;;;;;;5074215;28;20025;-85
2022/11/22 07:56:57;;;;;;;10.45;5.97;;;8.00;99.90;;;;;;5073685;28;20020;-85
2022/11/22 07:59:22;;;;;;;18.67;5.68;;;8.00;99.90;;;;;;5075151;28;20051;-86
2022/11/22 08:01:48;;;;;;;12.20;5.03;;;7.90;99.90;;;;;;5074472;28;20032;-85
2022/11/22 08:04:14;;;;;;;11.98;6.10;;;7.80;99.90;;;;;;5074799;28;20111;-86
2022/11/22 08:06:39;;;;;;;13.93;5.40;;;7.90;99.90;;;;;;5075451;28;20420;-86
2022/11/22 08:09:05;;;;;;;10.07;5.57;;;7.80;99.90;;;;;;5073355;28;20131;-86
2022/11/22 08:11:30;;;;;;;15.93;6.22;;;7.80;99.90;;;;;;5075134;28;20043;-85
2022/11/22 08:13:57;;;;;;;14.70;5.65;;;7.70;99.90;;;;;;5074592;28;20036;-86
2022/11/22 08:16:22;;;;;;;14.98;5.72;;;7.80;99.90;;;;;;5074112;28;20107;-86
2022/11/22 08:18:48;;;;;;;18.90;5.97;;;7.80;99.90;;;;;;5058195;28;20107;-86
2022/11/22 08:21:15;;;;;;;16.98;6.50;;;8.10;99.90;;;;;;5053638;28;20477;-86
2022/11/22 08:23:42;;;;;;;13.13;4.82;;;8.40;99.90;;;;;;5053208;28;20086;-86
2022/11/22 08:26:11;;;;;;;17.38;5.10;;;8.30;99.90;;;;;;5054441;28;20025;-86
2022/11/22 08:28:37;;;;;;;11.90;4.70;;;8.20;99.90;;;;;;5054380;28;20025;-86
2022/11/22 08:31:11;;;;;;;12.05;4.68;;;8.10;99.90;;;;;;5055258;28;20040;-86
2022/11/22 08:33:37;;;;;;;10.50;4.65;;;8.10;99.90;;;;;;5067178;28;20415;-86
2022/11/22 08:36:03;;;;;;;11.65;4.90;;;8.20;99.90;;;;;;5073061;28;20033;-85
2022/11/22 08:38:29;;;;;;;11.35;4.88;;;8.00;99.90;;;;;;5072801;28;20031;-85
2022/11/22 08:40:54;;;;;;;14.10;4.70;;;7.90;99.90;;;;;;5074235;28;20028;-86
2022/11/22 08:43:20;;;;;;;13.07;4.65;;;8.00;99.90;;;;;;5074221;28;20074;-85
2022/11/22 08:45:55;;;;;;;11.95;5.13;;;8.00;99.90;;;;;;5089208;28;20029;-86
2022/11/22 08:48:23;;;;;;;14.77;5.10;;;8.30;99.90;;;;;;5072869;28;20025;-86
2022/11/22 08:50:57;;;;;;;9.65;4.38;;;8.50;99.90;;;;;;5072859;28;20036;-86
2022/11/22 08:53:23;;;;;;;10.32;4.78;;;8.40;99.90;;;;;;5073990;28;20447;-86
2022/11/22 08:55:48;;;;;;;14.88;4.47;;;8.40;99.90;;;;;;5073653;28;20043;-86
2022/11/22 08:58:14;;;;;;;12.02;4.55;;;8.30;99.90;;;;;;5073549;28;20021;-86
2022/11/22 09:00:40;;;;;;;10.93;4.47;;;7.90;99.90;;;;;;5072625;28;20558;-86
2022/11/22 09:03:06;;;;;;;12.30;4.97;;;7.90;99.90;;;;;;5072426;28;20067;-86
2022/11/22 09:05:32;;;;;;;14.82;4.70;;;8.00;99.90;;;;;;5072266;28;20017;-86
2022/11/22 09:07:58;;;;;;;10.98;4.50;;;8.30;99.90;;;;;;5073403;28;20043;-86
2022/11/22 09:10:24;;;;;;;10.48;4.55;;;8.30;99.90;;;;;;5073591;28;20025;-85
2022/11/22 09:12:50;;;;;;;8.77;4.60;;;8.40;99.90;;;;;;5073200;28;20507;-86
2022/11/22 09:15:16;;;;;;;11.90;5.65;;;9.10;99.90;;;;;;5073781;28;20028;-86
2022/11/22 09:17:42;;;;;;;11.18;4.93;;;10.70;99.90;;;;;;5065156;28;20033;-86
2022/11/22 09:20:09;;;;;;;10.02;5.15;;;11.10;99.90;;;;;;5052142;28;20473;-86
2022/11/22 09:22:34;;;;;;;12.38;4.32;;;10.60;99.90;;;;;;5053397;28;20511;-86
2022/11/22 09:25:00;;;;;;;10.63;4.65;;;9.90;99.90;;;;;;5052417;28;20029;-86
2022/11/22 09:27:26;;;;;;;11.32;4.18;;;9.60;99.90;;;;;;5053129;28;20489;-86
2022/11/22 09:29:52;;;;;;;12.00;4.30;;;9.20;99.90;;;;;;5053311;28;20104;-85
2022/11/22 09:32:17;;;;;;;9.32;4.25;;;9.10;99.90;;;;;;5057193;28;20036;-86
2022/11/22 09:34:43;;;;;;;9.50;4.40;;;9.20;99.90;;;;;;5073172;28;20040;-85
2022/11/22 09:37:09;;;;;;;11.88;4.45;;;9.50;99.90;;;;;;5073387;28;20016;-86
2022/11/22 09:39:34;;;;;;;7.65;3.83;;;9.80;99.90;;;;;;5073503;28;20039;-86
2022/11/22 09:42:32;;;;;;;12.85;4.20;;;11.00;99.90;;;;;;5072810;28;20024;-85
2022/11/22 09:45:16;;;;;;;13.35;4.00;;;10.10;99.90;;;;;;5069870;28;20500;-86
2022/11/22 09:47:55;;;;;;;12.48;4.88;;;10.00;99.90;;;;;;5072972;28;20404;-86
2022/11/22 09:50:38;;;;;;;9.93;4.72;;;9.90;99.90;;;;;;5072699;28;20037;-86
2022/11/22 09:53:11;;;;;;;15.57;4.75;;;10.00;99.90;;;;;;5073012;28;20491;-86
2022/11/22 09:56:02;;;;;;;8.30;3.33;;;10.70;99.90;;;;;;5071375;28;20041;-86
2022/11/22 09:58:47;;;;;;;7.88;3.38;;;10.50;99.90;;;;;;5064139;28;20039;-86
2022/11/22 10:01:28;;;;;;;10.40;3.30;;;10.30;99.90;;;;;;5072663;28;20036;-86
2022/11/22 10:04:06;;;;;;;9.35;3.80;;;10.60;99.90;;;;;;5072619;28;20030;-86
2022/11/22 10:06:41;;;;;;;5.65;3.10;;;11.60;99.90;;;;;;5072444;28;20499;-86
2022/11/22 10:09:31;;;;;;;8.10;2.95;;;12.90;99.90;;;;;;5071197;28;20024;-86
2022/11/22 10:12:16;;;;;;;4.95;2.92;;;14.10;99.90;;;;;;5072575;28;20036;-85
2022/11/22 10:14:49;;;;;;;5.93;3.20;;;15.40;99.90;;;;;;5073202;28;20036;-86
2022/11/22 10:17:33;;;;;;;7.57;2.67;;;13.90;99.90;;;;;;5084410;28;20472;-86
2022/11/22 10:20:10;;;;;;;8.07;2.97;;;12.20;99.90;;;;;;5052238;28;20029;-87
2022/11/22 10:22:36;;;;;;;9.45;4.32;;;12.00;99.90;;;;;;5052388;28;20237;-87
2022/11/22 10:25:12;;;;;;;7.18;2.65;;;11.40;99.90;;;;;;5051331;28;20029;-86
2022/11/22 10:27:40;;;;;;;7.95;3.38;;;10.50;99.90;;;;;;5051168;28;20090;-86
2022/11/22 10:30:14;;;;;;;7.63;2.83;;;10.50;99.90;;;;;;5052227;28;20048;-86
2022/11/22 10:32:57;;;;;;;5.60;2.70;;;10.40;99.90;;;;;;5052680;28;20063;-86
2022/11/22 10:36:08;;;;;;;6.82;2.60;;;10.30;99.90;;;;;;5052323;28;20107;-79
2022/11/22 10:39:11;;;;;;;6.07;2.00;;;9.90;99.90;;;;;;4993811;28;20037;-79
2022/11/22 10:41:48;;;;;;;7.93;2.35;;;9.80;99.90;;;;;;5008694;28;20578;-78
2022/11/22 10:44:38;;;;;;;5.25;2.10;;;9.50;99.90;;;;;;5005295;28;20524;-79
2022/11/22 10:47:22;;;;;;;8.45;2.78;;;9.60;99.90;;;;;;5005524;28;20058;-79
2022/11/22 10:50:11;;;;;;;6.80;2.20;;;9.60;99.90;;;;;;4990222;28;20116;-79
2022/11/22 10:53:04;;;;;;;4.45;1.83;;;10.10;99.90;;;;;;4991355;28;20046;-80
2022/11/22 10:56:04;;;;;;;6.95;2.25;;;10.20;99.90;;;;;;5009270;28;20554;-80
2022/11/22 10:58:44;;;;;;;6.82;2.15;;;10.50;5.60;;;;;;5026698;28;20030;-80
2022/11/22 11:01:28;;;;;;;4.55;2.38;;;11.00;99.90;;;;;;5009787;28;20030;-79
2022/11/22 11:03:58;;;;;;;5.72;2.22;;;11.70;1.00;;;;;;5009746;28;20108;-81
2022/11/22 11:06:57;;;;;;;6.25;2.05;;;11.50;1.00;;;;;;5009969;28;20092;-80
2022/11/22 11:09:32;;;;;;;5.03;1.80;;;12.30;99.90;;;;;;4931999;29;20115;-81
2022/11/22 11:12:00;;;;;;;4.35;1.65;;;11.80;1.00;;;;;;4932484;29;20504;-81
2022/11/22 11:14:40;;;;;;;4.13;2.05;;;11.70;1.00;;;;;;4941012;28;20512;-81
2022/11/22 11:17:06;;;;;;;4.70;1.80;;;12.20;99.90;;;;;;4972609;28;20487;-80
2022/11/22 11:19:40;;;;;;;5.70;1.70;;;12.00;99.90;;;;;;4973935;28;20053;-81
2022/11/22 11:22:06;;;;;;;5.03;1.40;;;11.60;99.90;;;;;;4990608;28;20022;-81
2022/11/22 11:24:32;;;;;;;5.68;1.40;;;11.20;64.10;;;;;;4990061;28;20034;-81
2022/11/22 11:26:59;;;;;;;4.10;1.60;;;11.40;1.00;;;;;;4988920;28;20022;-80
2022/11/22 11:29:46;;;;;;;4.43;1.52;;;11.40;1.00;;;;;;4974986;28;20542;-80
2022/11/22 11:32:18;;;;;;;4.03;1.48;;;14.10;1.00;;;;;;4989913;28;20049;-80
2022/11/22 11:34:57;;;;;;;4.75;1.60;;;13.40;99.90;;;;;;4991654;28;20124;-81
2022/11/22 11:37:31;;;;;;;5.35;1.95;;;12.50;99.90;;;;;;4964571;28;20035;-82
2022/11/22 11:39:57;;;;;;;4.75;1.50;;;12.30;99.90;;;;;;4974280;28;20031;-85
2022/11/22 11:42:26;;;;;;;9.07;1.77;;;12.10;99.90;;;;;;4974189;28;20121;-81
2022/11/22 11:44:52;;;;;;;5.97;1.38;;;11.50;99.90;;;;;;5013351;28;20029;-87
2022/11/22 11:47:39;;;;;;;4.30;1.63;;;11.20;99.90;;;;;;5054854;28;20029;-81
2022/11/22 11:50:19;;;;;;;3.10;1.13;;;10.80;99.90;;;;;;5067670;28;20127;-80
2022/11/22 11:53:01;;;;;;;3.45;1.50;;;10.70;99.90;;;;;;5069835;28;20140;-80
2022/11/22 11:55:30;;;;;;;5.78;2.13;;;11.00;99.90;;;;;;5034978;28;20042;-80
2022/11/22 11:57:56;;;;;;;4.13;1.50;;;11.10;99.90;;;;;;5035072;28;20033;-80
2022/11/22 12:00:27;;;;;;;4.45;1.20;;;10.80;99.90;;;;;;5034917;28;20061;-80
2022/11/22 12:03:00;;;;;;;7.15;3.08;;;11.00;99.90;;;;;;5035172;28;20026;-80
2022/11/22 12:05:29;;;;;;;9.38;2.33;;;11.10;99.90;;;;;;5035006;28;20040;-80
2022/11/22 12:07:55;;;;;;;5.90;2.30;;;11.10;99.90;;;;;;5033224;28;20470;-81
2022/11/22 12:10:29;;;;;;;9.80;2.28;;;11.20;99.90;;;;;;5034989;28;20083;-80
2022/11/22 12:13:19;;;;;;;4.07;1.40;;;10.90;99.90;;;;;;5034877;28;20029;-80
2022/11/22 12:16:00;;;;;;;13.45;7.22;;;10.80;99.90;;;;;;5034659;28;20044;-80
2022/11/22 12:18:33;;;;;;;6.10;3.05;;;10.70;99.90;;;;;;5048068;28;20060;-80
2022/11/22 12:21:18;;;;;;;4.10;2.05;;;10.90;99.90;;;;;;5054325;28;20059;-80
2022/11/22 12:24:10;;;;;;;6.75;1.90;;;11.00;99.90;;;;;;5054893;28;20025;-80
2022/11/22 12:26:36;;;;;;;7.25;1.63;;;10.90;99.90;;;;;;5054828;28;20544;-80
2022/11/22 12:29:02;;;;;;;8.32;2.30;;;10.80;99.90;;;;;;5054549;28;20024;-80
2022/11/22 12:31:48;;;;;;;5.63;2.38;;;10.70;99.90;;;;;;5054407;28;20482;-80
2022/11/22 12:34:26;;;;;;;5.05;2.00;;;10.50;99.90;;;;;;5072957;28;20123;-80
2022/11/22 12:36:54;;;;;;;4.35;1.73;;;10.30;99.90;;;;;;5073977;28;20028;-80
2022/11/22 12:39:27;;;;;;;5.13;1.90;;;10.30;99.90;;;;;;5074388;28;20028;-80
2022/11/22 12:42:02;;;;;;;3.88;1.70;;;10.30;99.90;;;;;;5072860;28;20381;-80
2022/11/22 12:44:35;;;;;;;4.60;1.80;;;10.30;99.90;;;;;;5073961;28;20029;-80
2022/11/22 12:47:12;;;;;;;5.78;2.50;;;10.60;99.90;;;;;;5071762;28;20028;-81
2022/11/22 12:50:00;;;;;;;4.30;2.13;;;10.60;99.90;;;;;;5055835;28;20119;-81
2022/11/22 12:52:31;;;;;;;9.05;2.50;;;10.60;99.90;;;;;;5073899;28;20286;-82
2022/11/22 12:55:11;;;;;;;4.18;1.95;;;10.50;99.90;;;;;;5060922;28;20044;-81
2022/11/22 12:57:48;;;;;;;6.55;2.45;;;10.40;99.90;;;;;;5054149;28;20075;-81
2022/11/22 13:00:17;;;;;;;7.28;1.75;;;10.40;99.90;;;;;;5053607;28;20025;-81
2022/11/22 13:03:19;;;;;;;4.60;1.67;;;10.40;99.90;;;;;;5054032;28;20025;-81
2022/11/22 13:05:51;;;;;;;5.47;1.70;;;10.60;99.90;;;;;;5042954;28;20036;-81
2022/11/22 13:08:30;;;;;;;2.72;1.25;;;11.00;99.90;;;;;;5052712;28;20032;-81
2022/11/22 13:11:11;;;;;;;4.82;1.52;;;10.90;99.90;;;;;;5053571;28;20032;-82
2022/11/22 13:13:50;;;;;;;3.33;1.50;;;10.50;99.90;;;;;;5053073;28;20515;-81
2022/11/22 13:16:16;;;;;;;3.45;1.30;;;10.10;99.90;;;;;;5053700;28;20048;-82